Time;durP1;ratioP1;P1;durP2;ratioP2;P2;SDS_P1;SDS_P2;PMS_P1;PMS_P2;Temp;Humidity;BMP_temperature;BMP_pressure;BME280_temperature;BME280_humidity;BME280_pressure;Samples;Min_cycle;Max_cycle;Signal;HPM_P1;HPM_P2
2023/06/18 00:02:00;;;;;;;6.28;5.20;;;;;;;25.44;48.02;96501.09;5034109;28;20104;-27
2023/06/18 00:04:25;;;;;;;4.93;4.47;;;;;;;25.49;47.89;96498.25;5032140;28;20356;-27
2023/06/18 00:06:53;;;;;;;7.00;5.25;;;;;;;25.23;48.62;96498.81;5033509;28;20079;-27
2023/06/18 00:09:19;;;;;;;5.63;5.00;;;;;;;25.36;48.08;96498.16;5033729;28;20375;-27
2023/06/18 00:11:44;;;;;;;7.35;5.13;;;;;;;25.47;47.91;96495.22;5040638;28;20029;-27
2023/06/18 00:14:10;;;;;;;5.75;5.07;;;;;;;25.50;47.79;96493.44;5034874;28;20048;-27
2023/06/18 00:16:35;;;;;;;5.70;5.10;;;;;;;25.41;47.97;96498.09;5044836;28;20047;-27
2023/06/18 00:19:01;;;;;;;5.10;4.60;;;;;;;25.35;47.98;96502.94;5033338;28;20490;-27
2023/06/18 00:21:26;;;;;;;5.15;4.65;;;;;;;25.38;47.84;96499.13;5037162;28;20021;-27
2023/06/18 00:23:52;;;;;;;7.43;4.82;;;;;;;25.26;48.46;96497.75;5036356;28;20459;-27
2023/06/18 00:26:17;;;;;;;6.00;5.05;;;;;;;25.29;48.33;96491.19;5033422;28;20017;-27
2023/06/18 00:28:44;;;;;;;5.88;5.28;;;;;;;25.25;48.30;96493.50;5033455;28;20025;-27
2023/06/18 00:31:11;;;;;;;8.63;5.50;;;;;;;25.26;48.04;96488.69;5033501;28;20033;-27
2023/06/18 00:33:37;;;;;;;6.68;5.32;;;;;;;25.27;48.11;96488.16;5033525;28;20013;-27
2023/06/18 00:36:06;;;;;;;6.47;5.20;;;;;;;25.41;47.90;96489.75;5033001;28;20028;-27
2023/06/18 00:38:33;;;;;;;6.00;4.80;;;;;;;25.34;48.06;96482.03;5040129;28;20032;-27
2023/06/18 00:40:59;;;;;;;5.65;4.50;;;;;;;25.35;48.14;96488.31;5037873;28;20564;-27
2023/06/18 00:43:27;;;;;;;5.07;4.57;;;;;;;25.21;48.00;96479.16;5033290;28;20026;-28
2023/06/18 00:46:01;;;;;;;5.88;4.65;;;;;;;25.18;48.14;96482.22;5033035;28;20021;-27
2023/06/18 00:48:27;;;;;;;6.32;5.10;;;;;;;25.35;48.02;96483.50;5033099;28;20426;-27
2023/06/18 00:50:53;;;;;;;5.32;4.40;;;;;;;25.21;48.13;96487.50;5033158;28;20452;-27
2023/06/18 00:53:20;;;;;;;5.57;4.95;;;;;;;25.33;47.94;96480.53;5033282;28;20033;-27
2023/06/18 00:55:47;;;;;;;6.50;4.90;;;;;;;25.40;47.88;96479.94;5039140;28;20025;-27
2023/06/18 00:58:13;;;;;;;5.43;4.57;;;;;;;25.39;47.79;96475.66;5042316;28;20474;-27
2023/06/18 01:00:40;;;;;;;5.38;4.40;;;;;;;25.33;47.48;96480.53;5037050;28;20029;-27
2023/06/18 01:03:20;;;;;;;6.13;4.90;;;;;;;25.20;48.11;96480.44;5036561;28;20014;-27
2023/06/18 01:05:53;;;;;;;5.43;4.57;;;;;;;25.23;47.92;96482.16;5036454;28;20049;-28
2023/06/18 01:08:22;;;;;;;5.00;4.50;;;;;;;25.29;47.80;96480.06;5036566;28;20068;-27
2023/06/18 01:11:00;;;;;;;6.03;4.53;;;;;;;25.30;47.86;96480.81;5036791;28;20025;-27
2023/06/18 01:13:26;;;;;;;5.55;4.80;;;;;;;25.38;47.82;96484.50;5036617;28;20029;-27
2023/06/18 01:15:51;;;;;;;7.78;4.95;;;;;;;25.09;48.58;96483.34;5037058;28;20099;-27
2023/06/18 01:18:17;;;;;;;5.32;4.22;;;;;;;25.00;48.80;96489.22;5036081;28;20136;-27
2023/06/18 01:20:45;;;;;;;5.25;4.63;;;;;;;25.17;48.36;96495.34;5036418;28;20368;-27
2023/06/18 01:23:36;;;;;;;7.57;5.65;;;;;;;25.06;48.56;96484.38;5036368;28;20032;-27
2023/06/18 01:26:02;;;;;;;6.82;5.13;;;;;;;25.22;48.08;96482.69;5036441;28;20025;-27
2023/06/18 01:28:29;;;;;;;5.05;4.60;;;;;;;25.10;48.54;96479.28;5036090;28;20029;-27
2023/06/18 01:30:55;;;;;;;6.15;4.75;;;;;;;25.09;48.58;96488.16;5046376;28;20383;-27
2023/06/18 01:33:21;;;;;;;6.22;5.03;;;;;;;25.10;48.44;96475.78;5036369;28;20025;-27
2023/06/18 01:35:47;;;;;;;9.07;5.20;;;;;;;25.11;48.55;96480.03;5036233;28;20021;-27
2023/06/18 01:38:28;;;;;;;5.90;5.15;;;;;;;25.11;48.66;96477.25;5036527;28;20018;-27
2023/06/18 01:41:10;;;;;;;6.00;4.80;;;;;;;25.18;48.53;96480.22;5035741;28;20045;-27
2023/06/18 01:43:53;;;;;;;5.72;5.13;;;;;;;25.21;48.38;96479.16;5036292;28;20428;-28
2023/06/18 01:46:24;;;;;;;6.07;4.63;;;;;;;25.18;48.53;96479.47;5036271;28;20083;-27
2023/06/18 01:49:08;;;;;;;5.97;5.20;;;;;;;25.27;48.44;96477.06;5035737;28;20026;-27
2023/06/18 01:51:35;;;;;;;5.63;4.15;;;;;;;25.30;48.18;96478.06;5035826;28;20529;-27
2023/06/18 01:54:03;;;;;;;5.70;5.20;;;;;;;25.11;48.78;96480.03;5035454;28;20391;-28
2023/06/18 01:56:29;;;;;;;6.97;5.20;;;;;;;25.26;48.58;96488.69;5035913;28;20026;-27
2023/06/18 01:58:55;;;;;;;6.10;4.93;;;;;;;25.04;49.16;96481.38;5043021;28;20028;-27
2023/06/18 02:01:21;;;;;;;6.60;4.97;;;;;;;25.13;48.83;96475.47;5035704;28;20017;-27
2023/06/18 02:03:46;;;;;;;5.43;4.63;;;;;;;25.13;49.03;96477.47;5035728;28;20437;-27
2023/06/18 02:06:12;;;;;;;5.45;4.85;;;;;;;25.19;48.80;96478.19;5034276;28;20025;-28
2023/06/18 02:08:37;;;;;;;8.43;4.63;;;;;;;25.14;48.99;96488.06;5035661;28;20108;-28
2023/06/18 02:11:03;;;;;;;7.47;5.03;;;;;;;25.04;49.01;96486.94;5035354;28;20025;-27
2023/06/18 02:13:28;;;;;;;4.95;4.45;;;;;;;25.19;48.86;96480.97;5035451;28;20036;-27
2023/06/18 02:15:53;;;;;;;7.00;4.80;;;;;;;25.22;48.53;96486.19;5036143;28;20039;-27
2023/06/18 02:18:19;;;;;;;5.13;4.63;;;;;;;25.04;49.39;96481.38;5035493;28;20020;-27
2023/06/18 02:20:44;;;;;;;5.38;4.85;;;;;;;25.08;49.21;96484.63;5035370;28;20130;-27
2023/06/18 02:23:11;;;;;;;5.22;4.63;;;;;;;24.84;49.68;96496.44;5034882;28;20032;-27
2023/06/18 02:25:36;;;;;;;5.15;4.65;;;;;;;25.02;49.31;96492.25;5035317;28;20537;-27
2023/06/18 02:28:03;;;;;;;6.45;5.07;;;;;;;25.13;49.10;96486.56;5035217;28;20029;-27
2023/06/18 02:30:29;;;;;;;5.40;4.90;;;;;;;25.16;49.04;96488.31;5035280;28;20029;-27
2023/06/18 02:32:56;;;;;;;6.03;4.85;;;;;;;25.15;48.85;96481.25;5035370;28;20025;-27
2023/06/18 02:35:21;;;;;;;7.72;5.20;;;;;;;25.13;48.88;96478.25;5034905;28;20033;-27
2023/06/18 02:37:47;;;;;;;6.30;4.82;;;;;;;25.05;48.84;96482.88;5035191;28;20021;-27
2023/06/18 02:40:15;;;;;;;7.75;4.68;;;;;;;25.03;49.26;96485.44;5038823;28;20110;-27
2023/06/18 02:42:47;;;;;;;7.88;5.03;;;;;;;24.90;49.23;96488.06;5042256;28;20018;-27
2023/06/18 02:45:17;;;;;;;5.23;4.70;;;;;;;24.77;49.60;96494.25;5035096;28;20025;-27
2023/06/18 02:47:48;;;;;;;7.70;5.47;;;;;;;25.09;48.76;96497.22;5042360;28;20353;-27
2023/06/18 02:50:15;;;;;;;5.68;5.03;;;;;;;25.05;48.97;96510.63;5034864;28;20032;-27
2023/06/18 02:52:42;;;;;;;7.72;4.53;;;;;;;25.10;48.78;96501.47;5034335;28;20103;-27
2023/06/18 02:55:08;;;;;;;5.75;4.75;;;;;;;25.18;48.66;96496.09;5034681;28;20021;-27
2023/06/18 02:57:34;;;;;;;7.60;4.60;;;;;;;25.04;48.93;96503.56;5036223;28;20057;-27
2023/06/18 03:00:01;;;;;;;8.43;5.05;;;;;;;24.98;48.99;96500.09;5039819;28;20447;-27
2023/06/18 03:02:27;;;;;;;7.55;5.25;;;;;;;25.03;48.83;96508.38;5041444;28;20033;-27
2023/06/18 03:04:52;;;;;;;5.85;4.85;;;;;;;24.90;49.24;96511.00;5034606;28;20018;-27
2023/06/18 03:07:18;;;;;;;5.82;4.70;;;;;;;25.00;49.06;96508.66;5034252;28;20379;-27
2023/06/18 03:09:43;;;;;;;5.47;4.93;;;;;;;24.99;49.28;96501.59;5047714;28;20040;-28
2023/06/18 03:12:09;;;;;;;5.53;4.97;;;;;;;24.89;49.41;96492.09;5034101;28;20017;-27
2023/06/18 03:14:35;;;;;;;5.35;4.85;;;;;;;24.93;49.74;96493.34;5034789;28;20104;-26
2023/06/18 03:17:00;;;;;;;5.47;4.97;;;;;;;25.08;49.25;96501.28;5034035;28;20383;-27
2023/06/18 03:19:26;;;;;;;6.45;4.35;;;;;;;25.00;49.49;96503.09;5034150;28;20352;-27
2023/06/18 03:21:51;;;;;;;5.18;4.68;;;;;;;24.89;49.79;96494.88;5034276;28;20382;-27
2023/06/18 03:24:17;;;;;;;6.57;5.00;;;;;;;24.96;49.91;96505.44;5034104;28;20378;-27
2023/06/18 03:26:43;;;;;;;6.85;4.60;;;;;;;24.94;49.65;96505.19;5033924;28;20025;-27
2023/06/18 03:29:08;;;;;;;6.60;4.90;;;;;;;24.78;50.25;96497.75;5041785;28;20024;-27
2023/06/18 03:31:35;;;;;;;9.40;5.10;;;;;;;24.76;50.29;96500.31;5033831;28;20021;-27
2023/06/18 03:34:01;;;;;;;7.20;5.30;;;;;;;24.91;49.76;96506.97;5033877;28;20067;-26
2023/06/18 03:36:39;;;;;;;6.18;4.53;;;;;;;24.85;50.05;96508.31;5034228;28;20024;-27
2023/06/18 03:39:05;;;;;;;6.30;4.75;;;;;;;24.73;50.44;96507.63;5032469;28;20471;-27
2023/06/18 03:41:31;;;;;;;7.75;5.20;;;;;;;24.51;50.85;96508.59;5033660;28;20425;-27
2023/06/18 03:43:56;;;;;;;4.82;4.32;;;;;;;24.66;50.45;96508.97;5033944;28;20017;-27
2023/06/18 03:46:22;;;;;;;6.05;5.45;;;;;;;24.64;50.63;96511.50;5033906;28;20523;-28
2023/06/18 03:48:47;;;;;;;6.20;4.88;;;;;;;24.72;50.50;96517.25;5033709;28;20025;-28
2023/06/18 03:51:13;;;;;;;6.07;4.82;;;;;;;24.57;50.83;96514.84;5033901;28;20044;-28
2023/06/18 03:53:38;;;;;;;7.35;5.13;;;;;;;24.68;50.72;96514.75;5034046;28;20376;-28
2023/06/18 03:56:04;;;;;;;6.95;5.32;;;;;;;24.80;50.74;96522.97;5033755;28;20052;-27
2023/06/18 03:58:30;;;;;;;6.50;5.00;;;;;;;24.86;50.58;96527.19;5033302;28;20026;-26
2023/06/18 04:00:56;;;;;;;7.07;4.90;;;;;;;24.71;50.73;96518.53;5033619;28;20017;-27
2023/06/18 04:03:22;;;;;;;6.65;5.53;;;;;;;24.37;51.60;96526.34;5033335;28;20144;-27
2023/06/18 04:05:48;;;;;;;7.25;5.18;;;;;;;24.70;50.76;96526.09;5034001;28;20379;-27
2023/06/18 04:08:14;;;;;;;6.10;5.22;;;;;;;24.65;50.95;96524.09;5039873;28;20356;-27
2023/06/18 04:10:40;;;;;;;6.50;5.25;;;;;;;24.77;50.35;96527.53;5033499;28;20048;-27
2023/06/18 04:13:06;;;;;;;6.47;4.47;;;;;;;24.52;51.42;96529.50;5033395;28;20021;-27
2023/06/18 04:15:32;;;;;;;8.55;6.15;;;;;;;24.47;51.39;96524.03;5033745;28;20025;-27
2023/06/18 04:17:58;;;;;;;7.57;5.18;;;;;;;24.64;51.11;96528.16;5033581;28;20491;-27
2023/06/18 04:20:23;;;;;;;6.72;5.10;;;;;;;24.79;50.02;96527.75;5040448;28;20025;-27
2023/06/18 04:22:48;;;;;;;6.18;4.82;;;;;;;24.72;49.86;96538.69;5033456;28;20021;-27
2023/06/18 04:25:14;;;;;;;5.07;4.43;;;;;;;24.69;50.05;96548.78;5033563;28;20052;-27
2023/06/18 04:27:40;;;;;;;6.85;5.05;;;;;;;24.82;49.46;96537.81;5032985;28;20021;-27
2023/06/18 04:30:07;;;;;;;5.53;4.95;;;;;;;24.66;49.81;96544.25;5050238;28;20107;-27
2023/06/18 04:32:33;;;;;;;5.78;4.47;;;;;;;24.75;49.64;96540.41;5037234;28;20029;-27
2023/06/18 04:34:58;;;;;;;7.47;4.68;;;;;;;24.62;49.70;96547.31;5036886;28;20378;-27
2023/06/18 04:37:24;;;;;;;5.32;4.78;;;;;;;24.39;49.97;96539.69;5037704;28;20026;-27
2023/06/18 04:39:49;;;;;;;5.90;5.00;;;;;;;24.63;49.50;96543.28;5037271;28;20099;-27
2023/06/18 04:42:15;;;;;;;6.05;4.55;;;;;;;24.76;49.26;96544.69;5037253;28;20068;-27
2023/06/18 04:44:41;;;;;;;6.03;4.65;;;;;;;24.67;49.17;96546.53;5037038;28;20017;-28
2023/06/18 04:47:07;;;;;;;5.25;4.53;;;;;;;24.76;49.30;96544.69;5039270;28;20104;-27
2023/06/18 04:49:32;;;;;;;5.45;4.47;;;;;;;24.73;49.23;96554.78;5038334;28;20108;-27
2023/06/18 04:51:58;;;;;;;4.90;4.40;;;;;;;24.79;49.42;96538.09;5037074;28;20406;-28
2023/06/18 04:54:23;;;;;;;6.05;4.80;;;;;;;24.81;49.61;96543.88;5036788;28;20021;-29
2023/06/18 04:56:48;;;;;;;6.05;4.82;;;;;;;24.63;50.15;96543.28;5044468;28;20028;-27
2023/06/18 04:59:14;;;;;;;7.30;4.90;;;;;;;24.55;50.40;96549.91;5036580;28;20026;-27
2023/06/18 05:01:39;;;;;;;5.90;4.88;;;;;;;24.85;49.96;96553.41;5043505;28;20505;-28
2023/06/18 05:04:04;;;;;;;6.25;4.75;;;;;;;24.98;49.64;96550.03;5036424;28;20471;-27
2023/06/18 05:06:31;;;;;;;7.53;4.57;;;;;;;24.56;50.75;96559.72;5036844;28;20030;-27
2023/06/18 05:08:56;;;;;;;5.53;4.90;;;;;;;24.87;49.61;96561.22;5036826;28;20021;-26
2023/06/18 05:11:21;;;;;;;5.70;4.75;;;;;;;25.09;49.01;96563.06;5040910;28;20455;-26
2023/06/18 05:13:47;;;;;;;5.63;4.40;;;;;;;24.76;50.06;96559.31;5039016;28;20021;-27
2023/06/18 05:16:12;;;;;;;8.05;4.40;;;;;;;24.65;50.33;96556.63;5036876;28;20378;-27
2023/06/18 05:18:38;;;;;;;4.97;4.38;;;;;;;24.65;50.00;96551.84;5036371;28;20044;-26
2023/06/18 05:21:04;;;;;;;5.50;4.38;;;;;;;24.77;49.95;96558.03;5036419;28;20084;-27
2023/06/18 05:23:29;;;;;;;4.85;4.07;;;;;;;24.71;50.20;96554.56;5036429;28;20026;-27
2023/06/18 05:25:55;;;;;;;5.10;4.50;;;;;;;24.71;50.46;96560.13;5043325;28;20033;-27
2023/06/18 05:28:20;;;;;;;5.60;4.25;;;;;;;24.97;50.07;96559.66;5036736;28;20026;-27
2023/06/18 05:30:46;;;;;;;9.35;4.68;;;;;;;24.54;51.37;96559.50;5036240;28;20021;-27
2023/06/18 05:33:13;;;;;;;7.18;4.47;;;;;;;24.79;50.85;96565.84;5036050;28;20048;-27
2023/06/18 05:35:38;;;;;;;5.10;4.60;;;;;;;24.64;51.24;96566.97;5035983;28;20017;-27
2023/06/18 05:38:04;;;;;;;5.38;4.55;;;;;;;24.88;50.63;96569.03;5052423;28;20074;-27
2023/06/18 05:40:29;;;;;;;5.80;4.60;;;;;;;24.54;49.41;96567.81;5036282;28;20143;-28
2023/06/18 05:42:55;;;;;;;5.40;4.53;;;;;;;24.66;48.75;96575.53;5035828;28;20022;-27
2023/06/18 05:45:21;;;;;;;6.15;4.18;;;;;;;24.83;48.13;96575.38;5036119;28;20028;-26
2023/06/18 05:47:46;;;;;;;4.65;3.72;;;;;;;24.73;47.81;96573.47;5035784;28;20018;-27
2023/06/18 05:50:12;;;;;;;6.03;4.03;;;;;;;24.75;47.84;96576.44;5035735;28;20411;-27
2023/06/18 05:52:37;;;;;;;4.43;3.97;;;;;;;24.92;47.88;96568.75;5035388;28;20029;-27
2023/06/18 05:55:06;;;;;;;4.43;4.00;;;;;;;24.98;47.32;96570.22;5036115;28;20017;-27
2023/06/18 05:57:31;;;;;;;6.53;4.35;;;;;;;24.96;47.34;96574.78;5036456;28;20029;-27
2023/06/18 05:59:57;;;;;;;5.85;4.60;;;;;;;25.03;47.56;96579.75;5035807;28;20021;-27
2023/06/18 06:02:22;;;;;;;5.25;4.40;;;;;;;24.92;47.67;96593.72;5035466;28;20116;-27
2023/06/18 06:04:48;;;;;;;5.63;4.53;;;;;;;24.84;47.51;96588.00;5035599;28;20017;-27
2023/06/18 06:07:13;;;;;;;4.25;3.75;;;;;;;24.93;47.83;96592.47;5035554;28;20483;-27
2023/06/18 06:09:39;;;;;;;6.43;4.05;;;;;;;24.90;48.10;96593.47;5035097;28;20029;-27
2023/06/18 06:12:04;;;;;;;5.50;4.10;;;;;;;24.86;48.38;96606.88;5036086;28;20030;-27
2023/06/18 06:14:30;;;;;;;9.18;4.47;;;;;;;24.92;47.85;96599.25;5035430;28;20032;-27
2023/06/18 06:16:57;;;;;;;5.50;4.20;;;;;;;24.74;47.74;96603.44;5035378;28;20021;-27
2023/06/18 06:19:24;;;;;;;6.28;4.28;;;;;;;24.87;47.35;96598.03;5035318;28;20025;-28
2023/06/18 06:21:50;;;;;;;5.13;4.00;;;;;;;24.86;47.45;96595.78;5035311;28;20372;-27
2023/06/18 06:24:15;;;;;;;5.20;4.05;;;;;;;25.03;47.45;96601.97;5035102;28;20020;-27
2023/06/18 06:26:41;;;;;;;4.65;3.75;;;;;;;24.92;47.51;96607.59;5035424;28;20018;-27
2023/06/18 06:29:07;;;;;;;4.40;3.88;;;;;;;25.08;46.80;96603.94;5035131;28;20104;-27
2023/06/18 06:31:32;;;;;;;6.03;3.92;;;;;;;24.96;47.16;96606.06;5034949;28;20033;-27
2023/06/18 06:33:58;;;;;;;4.97;4.20;;;;;;;24.97;47.75;96615.16;5034566;28;20032;-27
2023/06/18 06:36:23;;;;;;;7.82;4.28;;;;;;;24.93;48.09;96612.66;5035115;28;20124;-27
2023/06/18 06:38:49;;;;;;;4.57;4.03;;;;;;;25.03;47.97;96615.84;5034874;28;20083;-26
2023/06/18 06:41:14;;;;;;;6.20;3.80;;;;;;;25.08;47.44;96612.28;5048075;28;20084;-27
2023/06/18 06:43:40;;;;;;;5.95;4.63;;;;;;;25.00;47.87;96614.09;5042372;28;20031;-27
2023/06/18 06:46:05;;;;;;;5.13;3.88;;;;;;;25.03;47.82;96621.38;5035040;28;20096;-27
2023/06/18 06:48:31;;;;;;;5.07;4.32;;;;;;;25.14;47.43;96620.53;5034921;28;20021;-28
2023/06/18 06:50:58;;;;;;;6.70;4.50;;;;;;;25.15;47.83;96633.13;5033748;28;20025;-27
2023/06/18 06:53:23;;;;;;;6.07;4.18;;;;;;;25.09;48.01;96616.56;5042984;28;20024;-27
2023/06/18 06:55:48;;;;;;;4.82;4.28;;;;;;;25.08;48.14;96619.84;5035131;28;20017;-28
2023/06/18 06:58:14;;;;;;;6.00;4.53;;;;;;;25.18;48.37;96613.44;5034345;28;20066;-27
2023/06/18 07:00:39;;;;;;;5.90;4.05;;;;;;;25.17;48.42;96611.91;5034958;28;20135;-27
2023/06/18 07:03:05;;;;;;;4.85;4.20;;;;;;;25.24;48.23;96614.09;5034729;28;20029;-27
2023/06/18 07:05:30;;;;;;;4.53;4.00;;;;;;;25.18;48.69;96630.09;5034143;28;20032;-27
2023/06/18 07:07:56;;;;;;;6.00;4.68;;;;;;;25.21;48.10;96629.03;5034463;28;20021;-27
2023/06/18 07:10:21;;;;;;;5.30;3.97;;;;;;;25.15;47.99;96622.03;5034283;28;20432;-27
2023/06/18 07:12:47;;;;;;;5.95;3.85;;;;;;;25.14;48.32;96614.97;5034215;28;20026;-27
2023/06/18 07:15:12;;;;;;;5.88;4.25;;;;;;;25.22;47.84;96613.88;5034376;28;20017;-28
2023/06/18 07:17:38;;;;;;;5.25;4.13;;;;;;;25.29;47.72;96618.13;5034242;28;20474;-27
2023/06/18 07:20:03;;;;;;;6.75;4.40;;;;;;;25.21;47.78;96623.50;5034414;28;20479;-27
2023/06/18 07:22:29;;;;;;;5.05;3.90;;;;;;;25.34;47.78;96623.63;5034144;28;20375;-27
2023/06/18 07:24:56;;;;;;;6.20;4.20;;;;;;;25.29;47.97;96618.13;5033913;28;20352;-27
2023/06/18 07:27:23;;;;;;;4.88;4.30;;;;;;;25.27;47.76;96615.09;5033867;28;20048;-27
2023/06/18 07:29:49;;;;;;;5.43;4.10;;;;;;;25.34;47.56;96620.84;5034100;28;20491;-27
2023/06/18 07:32:14;;;;;;;4.80;3.88;;;;;;;25.27;47.44;96620.66;5034048;28;20053;-27
2023/06/18 07:34:40;;;;;;;5.20;4.03;;;;;;;25.28;47.07;96619.38;5037765;28;20017;-27
2023/06/18 07:37:05;;;;;;;5.38;3.97;;;;;;;25.24;46.90;96624.47;5037122;28;20021;-27
2023/06/18 07:39:30;;;;;;;5.25;3.45;;;;;;;25.23;47.13;96620.19;5033510;28;20056;-27
2023/06/18 07:41:56;;;;;;;5.53;4.00;;;;;;;25.26;47.34;96619.91;5047234;28;20378;-27
2023/06/18 07:44:21;;;;;;;6.93;4.38;;;;;;;25.46;47.37;96624.25;5034006;28;20538;-27
2023/06/18 07:46:47;;;;;;;7.05;4.18;;;;;;;25.39;47.40;96628.34;5033879;28;20025;-27
2023/06/18 07:49:13;;;;;;;7.30;4.63;;;;;;;25.39;47.10;96628.34;5042303;28;20108;-27
2023/06/18 07:51:38;;;;;;;5.45;4.35;;;;;;;25.46;47.12;96631.81;5041412;28;20025;-27
2023/06/18 07:54:04;;;;;;;5.28;3.97;;;;;;;25.53;46.92;96634.78;5033537;28;20032;-27
2023/06/18 07:56:29;;;;;;;4.50;3.95;;;;;;;25.39;46.65;96633.16;5034068;28;20025;-27
2023/06/18 07:58:55;;;;;;;7.32;4.22;;;;;;;25.33;46.63;96630.44;5033598;28;20017;-28
2023/06/18 08:01:20;;;;;;;4.68;3.90;;;;;;;25.38;46.56;96642.75;5033738;28;20029;-27
2023/06/18 08:03:46;;;;;;;5.82;3.95;;;;;;;25.29;46.90;96641.06;5033050;28;20025;-26
2023/06/18 08:06:11;;;;;;;4.40;4.00;;;;;;;25.33;46.79;96640.78;5033580;28;20075;-27
2023/06/18 08:08:37;;;;;;;6.05;4.32;;;;;;;25.39;46.71;96631.13;5033532;28;20075;-26
2023/06/18 08:11:02;;;;;;;4.63;4.03;;;;;;;25.48;46.47;96632.78;5033147;28;20490;-27
2023/06/18 08:13:27;;;;;;;5.78;4.60;;;;;;;25.44;46.83;96631.59;5046622;28;20379;-27
2023/06/18 08:15:53;;;;;;;6.15;4.45;;;;;;;25.36;47.14;96634.19;5033443;28;20025;-27
2023/06/18 08:18:18;;;;;;;152.18;83.60;;;;;;;25.50;46.59;96627.47;5033476;28;20029;-28
2023/06/18 08:20:44;;;;;;;108.35;58.72;;;;;;;25.47;46.78;96630.56;5033728;28;20414;-28
2023/06/18 08:23:09;;;;;;;79.68;44.70;;;;;;;25.40;46.40;96629.84;5033925;28;20022;-27
2023/06/18 08:25:35;;;;;;;54.47;31.83;;;;;;;25.48;46.62;96630.00;5033228;28;20040;-27
2023/06/18 08:28:01;;;;;;;43.90;26.30;;;;;;;25.37;47.31;96627.34;5033742;28;20115;-27
2023/06/18 08:30:27;;;;;;;28.08;17.92;;;;;;;25.46;47.38;96635.38;5033059;28;20026;-27
2023/06/18 08:32:55;;;;;;;19.95;12.60;;;;;;;25.52;47.81;96632.50;5033201;28;20029;-28
2023/06/18 08:35:22;;;;;;;13.80;10.40;;;;;;;25.42;47.78;96632.88;5033203;28;20364;-27
2023/06/18 08:37:47;;;;;;;11.75;7.90;;;;;;;25.45;47.80;96624.78;5033502;28;20437;-29
2023/06/18 08:40:14;;;;;;;9.70;6.85;;;;;;;25.43;48.10;96622.50;5033353;28;20042;-27
2023/06/18 08:42:40;;;;;;;8.80;6.32;;;;;;;25.48;48.41;96630.00;5032997;28;20578;-27
2023/06/18 08:45:06;;;;;;;9.20;7.20;;;;;;;25.39;48.53;96631.13;5041786;28;20104;-26
2023/06/18 08:47:33;;;;;;;6.22;4.90;;;;;;;25.44;48.64;96626.03;5033020;28;20096;-27
2023/06/18 08:49:59;;;;;;;8.90;5.43;;;;;;;25.51;48.25;96633.78;5034882;28;20021;-26
2023/06/18 08:52:29;;;;;;;7.97;5.20;;;;;;;25.52;48.50;96640.84;5032864;28;20037;-27
2023/06/18 08:54:59;;;;;;;5.85;5.07;;;;;;;25.49;48.62;96639.09;5032752;28;20029;-27
2023/06/18 08:57:31;;;;;;;5.40;4.57;;;;;;;25.51;48.34;96642.88;5039930;28;20021;-26
2023/06/18 08:59:59;;;;;;;5.55;5.00;;;;;;;25.57;48.68;96640.78;5040427;28;20112;-27
2023/06/18 09:02:26;;;;;;;5.22;4.53;;;;;;;25.50;48.69;96643.38;5032832;28;20042;-27
2023/06/18 09:04:52;;;;;;;5.30;4.15;;;;;;;25.61;48.78;96649.59;5032823;28;20044;-26
2023/06/18 09:07:20;;;;;;;7.18;4.57;;;;;;;25.58;48.97;96647.09;5032623;28;20025;-26
2023/06/18 09:09:45;;;;;;;5.35;4.72;;;;;;;25.61;48.97;96643.28;5033175;28;20029;-26
2023/06/18 09:12:11;;;;;;;6.75;4.45;;;;;;;25.62;49.21;96644.78;5033110;28;20071;-26
2023/06/18 09:14:36;;;;;;;7.05;4.57;;;;;;;25.53;49.50;96653.44;5033460;28;20022;-27
2023/06/18 09:17:02;;;;;;;5.13;4.63;;;;;;;25.64;48.99;96647.81;5036558;28;20021;-26
2023/06/18 09:19:27;;;;;;;6.40;4.85;;;;;;;25.69;49.09;96649.78;5056475;28;20029;-26
2023/06/18 09:21:53;;;;;;;4.72;4.22;;;;;;;25.64;49.75;96645.78;5049765;28;20474;-26
2023/06/18 09:24:22;;;;;;;5.95;4.85;;;;;;;25.54;49.99;96649.41;5036075;28;20040;-27
2023/06/18 09:26:50;;;;;;;5.03;4.50;;;;;;;25.62;49.63;96642.00;5036590;28;20495;-27
2023/06/18 09:29:15;;;;;;;6.93;4.72;;;;;;;25.55;49.76;96650.91;5036394;28;20021;-26
2023/06/18 09:31:47;;;;;;;8.43;5.13;;;;;;;25.68;49.61;96659.38;5036086;28;20022;-27
2023/06/18 09:34:19;;;;;;;7.72;5.47;;;;;;;25.58;49.94;96661.75;5036242;28;20069;-27
2023/06/18 09:36:48;;;;;;;6.18;5.22;;;;;;;25.62;49.68;96661.47;5036324;28;20390;-26
2023/06/18 09:39:23;;;;;;;6.78;5.13;;;;;;;25.57;49.59;96660.22;5036368;28;20395;-26
2023/06/18 09:41:51;;;;;;;5.40;4.88;;;;;;;25.62;49.50;96664.97;5040265;28;20029;-27
2023/06/18 09:44:18;;;;;;;7.45;4.88;;;;;;;25.69;49.30;96664.41;5038487;28;20020;-26
2023/06/18 09:46:55;;;;;;;6.35;4.60;;;;;;;25.71;49.00;96658.34;5043270;28;20032;-26
2023/06/18 09:49:21;;;;;;;5.80;4.97;;;;;;;25.66;49.55;96667.47;5046237;28;20067;-27
2023/06/18 09:51:49;;;;;;;5.78;4.88;;;;;;;25.76;49.26;96666.59;5043453;28;20379;-26
2023/06/18 09:54:15;;;;;;;6.03;4.70;;;;;;;25.77;49.14;96670.88;5035449;28;20025;-27
2023/06/18 09:57:02;;;;;;;5.35;4.70;;;;;;;25.81;49.33;96670.59;5036550;28;20108;-27
2023/06/18 09:59:28;;;;;;;8.45;4.80;;;;;;;25.83;49.43;96670.09;5035904;28;20099;-26
2023/06/18 10:01:57;;;;;;;5.22;4.43;;;;;;;25.74;48.83;96663.59;5042659;28;20029;-26
2023/06/18 10:04:23;;;;;;;6.13;4.10;;;;;;;25.75;48.67;96667.88;5035620;28;20113;-26
2023/06/18 10:06:57;;;;;;;6.68;4.90;;;;;;;25.73;47.56;96661.34;5035400;28;20029;-27
2023/06/18 10:09:28;;;;;;;6.35;4.53;;;;;;;25.83;47.86;96659.72;5035611;28;20017;-26
2023/06/18 10:11:56;;;;;;;7.63;4.60;;;;;;;25.81;47.55;96664.28;5042733;28;20028;-26
2023/06/18 10:14:25;;;;;;;5.05;4.25;;;;;;;25.78;47.55;96663.31;5039653;28;20106;-27
2023/06/18 10:16:53;;;;;;;5.88;4.82;;;;;;;25.75;47.29;96658.78;5037736;28;20379;-26
2023/06/18 10:19:24;;;;;;;6.15;4.78;;;;;;;25.80;47.11;96660.75;5035302;28;20021;-26
2023/06/18 10:21:57;;;;;;;5.72;4.50;;;;;;;25.88;46.56;96667.22;5035337;28;20025;-28
2023/06/18 10:24:30;;;;;;;6.57;4.63;;;;;;;25.90;46.13;96661.16;5042628;28;20018;-26
2023/06/18 10:26:56;;;;;;;5.30;4.63;;;;;;;25.93;45.85;96649.75;5034206;28;20414;-26
2023/06/18 10:29:22;;;;;;;7.38;4.82;;;;;;;25.93;45.52;96657.34;5042623;28;20022;-27
2023/06/18 10:31:50;;;;;;;5.22;4.60;;;;;;;25.94;46.15;96659.59;5035425;28;20021;-26
2023/06/18 10:34:17;;;;;;;5.88;4.63;;;;;;;25.83;46.36;96642.31;5034920;28;20033;-27
2023/06/18 10:36:44;;;;;;;6.13;4.80;;;;;;;25.96;46.04;96657.03;5034766;28;20029;-27
2023/06/18 10:39:10;;;;;;;11.43;4.57;;;;;;;25.98;45.42;96653.72;5035544;28;20099;-26
2023/06/18 10:41:36;;;;;;;5.15;4.35;;;;;;;26.01;45.35;96664.53;5041011;28;20075;-27
2023/06/18 10:44:02;;;;;;;6.45;4.38;;;;;;;25.93;45.39;96655.31;5039213;28;20479;-26
2023/06/18 10:46:33;;;;;;;6.20;4.55;;;;;;;25.95;45.95;96663.88;5034946;28;20060;-26
2023/06/18 10:49:19;;;;;;;6.10;4.57;;;;;;;26.00;46.32;96656.72;5034588;28;20029;-27
2023/06/18 10:51:57;;;;;;;5.38;4.80;;;;;;;25.94;46.36;96656.81;5035269;28;20516;-26
2023/06/18 10:54:26;;;;;;;5.43;4.57;;;;;;;26.02;46.24;96666.06;5034723;28;20033;-26
2023/06/18 10:56:56;;;;;;;6.10;4.30;;;;;;;26.09;46.18;96657.09;5042022;28;20017;-27
2023/06/18 10:59:37;;;;;;;5.97;4.65;;;;;;;26.05;46.35;96651.13;5034653;28;20443;-27
2023/06/18 11:02:03;;;;;;;7.93;4.95;;;;;;;26.11;46.04;96645.47;5034645;28;20021;-26
2023/06/18 11:04:31;;;;;;;5.45;4.40;;;;;;;26.15;46.35;96650.72;5034734;28;20017;-27
2023/06/18 11:07:24;;;;;;;5.10;4.38;;;;;;;26.12;46.23;96649.75;5034471;28;20029;-26
2023/06/18 11:10:01;;;;;;;5.30;4.75;;;;;;;26.10;46.64;96650.28;5034357;28;20032;-27
2023/06/18 11:12:44;;;;;;;5.13;4.63;;;;;;;26.15;45.93;96639.63;5034377;28;20021;-27
2023/06/18 11:15:16;;;;;;;9.15;4.25;;;;;;;26.19;45.50;96651.94;5041760;28;20017;-27
2023/06/18 11:17:48;;;;;;;5.40;4.28;;;;;;;26.14;45.37;96655.53;5034377;28;20024;-26
2023/06/18 11:20:14;;;;;;;4.60;4.03;;;;;;;26.19;45.35;96642.84;5042143;28;20185;-26
2023/06/18 11:22:41;;;;;;;7.32;4.03;;;;;;;26.07;44.61;96645.03;5034005;28;20167;-26
2023/06/18 11:25:08;;;;;;;5.90;4.25;;;;;;;26.16;44.15;96641.88;5034083;28;20018;-26
2023/06/18 11:27:34;;;;;;;5.00;3.90;;;;;;;26.19;43.14;96642.84;5033931;28;20390;-26
2023/06/18 11:30:00;;;;;;;5.20;4.47;;;;;;;26.20;43.14;96644.34;5033472;28;20025;-26
2023/06/18 11:32:26;;;;;;;6.53;4.10;;;;;;;26.22;43.02;96644.56;5036894;28;20028;-26